DLH763 VIDP-EDDM
Flight info
| Callsign | DLH763 |
|---|---|
| Flight time | N/A |
| Altitude | 36000 |
| Route | OROTI7C OROTI A589 BUTOP M875 JHANG A466 DI N644 REGET/N0495F380 N644 LEMOD A909 RODAR N644 ADEKI DCT BADIR DCT LAGAS DCT NOLGA UN61 GONPU/N0491F400 UN61 TBN UM11 CRM UL746 ODERO DCT LUGEB DCT MOPUG DCT SUNIS DCT AMADI Q113 NAPSA NAPSA4A |
| Aircraft | A388/J-SADE2E3FGHIJ3J4J5M1RWXY/LB1D1 |
Departure
| Time | N/A |
|---|---|
| Airport | Indira Gandhi International Airport (VIDP) |
Arrival
| Time | 2026-05-06 23:35 |
|---|---|
| Airport | Munich Airport (EDDM) |
| Time | Latitude | Longitude | Altitude | Speed | Heading |
|---|---|---|---|---|---|
| 2026-05-06 20:05 | 41.52623 | 44.83567 | 40128 ft | 463 kts | 272° |
| 2026-05-06 20:05 | 41.52958 | 44.79289 | 40124 ft | 463 kts | 272° |
| 2026-05-06 20:06 | 41.53622 | 44.70726 | 40123 ft | 464 kts | 272° |
| 2026-05-06 20:06 | 41.54281 | 44.62157 | 40122 ft | 465 kts | 272° |
| 2026-05-06 20:07 | 41.54934 | 44.53570 | 40131 ft | 465 kts | 272° |
| 2026-05-06 20:07 | 41.55583 | 44.44964 | 40130 ft | 466 kts | 272° |
| 2026-05-06 20:08 | 41.56226 | 44.36338 | 40127 ft | 467 kts | 272° |
| 2026-05-06 20:08 | 41.56814 | 44.27705 | 40128 ft | 467 kts | 269° |
| 2026-05-06 20:09 | 41.56678 | 44.19068 | 40123 ft | 464 kts | 262° |
| 2026-05-06 20:09 | 41.55800 | 44.10599 | 40125 ft | 463 kts | 259° |
| 2026-05-06 20:10 | 41.54866 | 44.02084 | 40125 ft | 463 kts | 259° |
| 2026-05-06 20:10 | 41.53927 | 43.93582 | 40110 ft | 464 kts | 259° |
| 2026-05-06 20:11 | 41.52972 | 43.85064 | 40111 ft | 464 kts | 259° |
| 2026-05-06 20:11 | 41.52010 | 43.76559 | 40133 ft | 464 kts | 259° |
| 2026-05-06 20:12 | 41.51041 | 43.68044 | 40137 ft | 464 kts | 259° |
| 2026-05-06 20:12 | 41.50066 | 43.59530 | 40146 ft | 465 kts | 259° |
| 2026-05-06 20:13 | 41.49083 | 43.51009 | 40147 ft | 465 kts | 259° |
| 2026-05-06 20:13 | 41.48258 | 43.43941 | 40143 ft | 464 kts | 257° |
| 2026-05-06 20:14 | 41.47271 | 43.35470 | 40115 ft | 461 kts | 259° |
| 2026-05-06 20:14 | 41.46281 | 43.27014 | 40116 ft | 462 kts | 259° |
| 2026-05-06 20:15 | 41.45279 | 43.18560 | 40122 ft | 463 kts | 259° |
| 2026-05-06 20:15 | 41.44269 | 43.10080 | 40133 ft | 464 kts | 258° |
| 2026-05-06 20:16 | 41.43251 | 43.01583 | 40140 ft | 465 kts | 258° |
| 2026-05-06 20:16 | 41.42225 | 42.93073 | 40150 ft | 465 kts | 259° |
| 2026-05-06 20:17 | 41.41191 | 42.84563 | 40156 ft | 466 kts | 258° |
| 2026-05-06 20:17 | 41.40150 | 42.76036 | 40152 ft | 466 kts | 258° |
| 2026-05-06 20:18 | 41.39101 | 42.67507 | 40162 ft | 466 kts | 258° |
| 2026-05-06 20:18 | 41.38048 | 42.58992 | 40156 ft | 467 kts | 258° |
| 2026-05-06 20:19 | 41.36987 | 42.50468 | 40157 ft | 467 kts | 258° |
| 2026-05-06 20:19 | 41.35919 | 42.41949 | 40166 ft | 467 kts | 258° |
| 2026-05-06 20:20 | 41.34850 | 42.33464 | 40163 ft | 467 kts | 258° |
| 2026-05-06 20:20 | 41.33769 | 42.24941 | 40168 ft | 468 kts | 258° |
| 2026-05-06 20:21 | 41.32680 | 42.16411 | 40172 ft | 468 kts | 258° |
| 2026-05-06 20:21 | 41.31585 | 42.07873 | 40170 ft | 468 kts | 258° |
| 2026-05-06 20:22 | 41.30484 | 41.99345 | 40173 ft | 468 kts | 258° |
| 2026-05-06 20:22 | 41.29369 | 41.90808 | 40167 ft | 469 kts | 258° |
| 2026-05-06 20:23 | 41.28240 | 41.82270 | 40173 ft | 469 kts | 258° |
| 2026-05-06 20:23 | 41.27104 | 41.73711 | 40175 ft | 470 kts | 258° |
| 2026-05-06 20:24 | 41.25964 | 41.65162 | 40190 ft | 470 kts | 258° |
| 2026-05-06 20:24 | 41.24818 | 41.56619 | 40192 ft | 470 kts | 258° |
| 2026-05-06 20:25 | 41.23665 | 41.48079 | 40189 ft | 470 kts | 258° |
| 2026-05-06 20:25 | 41.22504 | 41.39533 | 40187 ft | 470 kts | 258° |
| 2026-05-06 20:26 | 41.21339 | 41.31006 | 40190 ft | 469 kts | 258° |
| 2026-05-06 20:26 | 41.20167 | 41.22478 | 40188 ft | 469 kts | 258° |
| 2026-05-06 20:27 | 41.18990 | 41.13961 | 40179 ft | 469 kts | 258° |
| 2026-05-06 20:27 | 41.17809 | 41.05464 | 40178 ft | 468 kts | 258° |
| 2026-05-06 20:28 | 41.16621 | 40.96962 | 40176 ft | 468 kts | 258° |
| 2026-05-06 20:28 | 41.15426 | 40.88460 | 40176 ft | 469 kts | 258° |
| 2026-05-06 20:29 | 41.14224 | 40.79960 | 40178 ft | 469 kts | 258° |
| 2026-05-06 20:29 | 41.13025 | 40.71519 | 40180 ft | 469 kts | 258° |
| 2026-05-06 20:30 | 41.11199 | 40.58762 | 40179 ft | 470 kts | 258° |
| 2026-05-06 20:31 | 41.09966 | 40.50202 | 40181 ft | 470 kts | 258° |
| 2026-05-06 20:31 | 41.08740 | 40.41741 | 40187 ft | 470 kts | 257° |
| 2026-05-06 20:32 | 41.07501 | 40.33232 | 40187 ft | 470 kts | 257° |
| 2026-05-06 20:32 | 41.06254 | 40.24717 | 40186 ft | 471 kts | 257° |
| 2026-05-06 20:33 | 41.05001 | 40.16212 | 40191 ft | 471 kts | 257° |
| 2026-05-06 20:33 | 41.03742 | 40.07702 | 40183 ft | 471 kts | 257° |
| 2026-05-06 20:34 | 41.02476 | 39.99199 | 40190 ft | 470 kts | 257° |
| 2026-05-06 20:34 | 41.01203 | 39.90691 | 40172 ft | 471 kts | 257° |
| 2026-05-06 20:35 | 41.00174 | 39.82135 | 40175 ft | 472 kts | 264° |
| 2026-05-06 20:35 | 41.00159 | 39.73420 | 40179 ft | 475 kts | 273° |
| 2026-05-06 20:36 | 41.00960 | 39.64724 | 40179 ft | 476 kts | 275° |
| 2026-05-06 20:36 | 41.01795 | 39.56009 | 40191 ft | 477 kts | 275° |
| 2026-05-06 20:37 | 41.02616 | 39.47296 | 40192 ft | 477 kts | 275° |
| 2026-05-06 20:37 | 41.03434 | 39.38560 | 40189 ft | 478 kts | 275° |
| 2026-05-06 20:38 | 41.04247 | 39.29818 | 40188 ft | 479 kts | 275° |
| 2026-05-06 20:38 | 41.05054 | 39.21067 | 40191 ft | 479 kts | 275° |
| 2026-05-06 20:39 | 41.05855 | 39.12302 | 40193 ft | 479 kts | 275° |
| 2026-05-06 20:39 | 41.06666 | 39.03543 | 40182 ft | 479 kts | 275° |
| 2026-05-06 20:40 | 41.07470 | 38.94831 | 40191 ft | 479 kts | 275° |
| 2026-05-06 20:40 | 41.08270 | 38.86062 | 40178 ft | 479 kts | 275° |
| 2026-05-06 20:41 | 41.09061 | 38.77301 | 40178 ft | 479 kts | 275° |
| 2026-05-06 20:41 | 41.09847 | 38.68526 | 40180 ft | 479 kts | 275° |
| 2026-05-06 20:42 | 41.10608 | 38.59748 | 40179 ft | 479 kts | 275° |
| 2026-05-06 20:42 | 41.11347 | 38.50962 | 40182 ft | 479 kts | 275° |
| 2026-05-06 20:43 | 41.12077 | 38.42176 | 40179 ft | 480 kts | 275° |
| 2026-05-06 20:43 | 41.12805 | 38.33364 | 40188 ft | 480 kts | 275° |
| 2026-05-06 20:44 | 41.13527 | 38.24557 | 40182 ft | 481 kts | 275° |
| 2026-05-06 20:44 | 41.14251 | 38.15733 | 40180 ft | 481 kts | 275° |
| 2026-05-06 20:45 | 41.14967 | 38.06910 | 40180 ft | 482 kts | 275° |
| 2026-05-06 20:45 | 41.15678 | 37.98065 | 40185 ft | 482 kts | 275° |
| 2026-05-06 20:46 | 41.16377 | 37.89275 | 40189 ft | 483 kts | 275° |
| 2026-05-06 20:46 | 41.17113 | 37.80411 | 40180 ft | 484 kts | 276° |
| 2026-05-06 20:47 | 41.17878 | 37.71534 | 40177 ft | 484 kts | 276° |
| 2026-05-06 20:47 | 41.18628 | 37.62646 | 40180 ft | 484 kts | 276° |
| 2026-05-06 20:48 | 41.19178 | 37.53736 | 40180 ft | 484 kts | 273° |
| 2026-05-06 20:48 | 41.19771 | 37.44826 | 40173 ft | 484 kts | 275° |
| 2026-05-06 20:49 | 41.20452 | 37.35940 | 40172 ft | 484 kts | 275° |
| 2026-05-06 20:49 | 41.21115 | 37.27038 | 40162 ft | 484 kts | 275° |
| 2026-05-06 20:50 | 41.21772 | 37.18143 | 40161 ft | 484 kts | 275° |
| 2026-05-06 20:50 | 41.22469 | 37.09270 | 40158 ft | 483 kts | 275° |
| 2026-05-06 20:51 | 41.23159 | 37.00392 | 40152 ft | 483 kts | 275° |
| 2026-05-06 20:51 | 41.23837 | 36.91508 | 40151 ft | 483 kts | 275° |
| 2026-05-06 20:52 | 41.24502 | 36.82694 | 40152 ft | 483 kts | 275° |
| 2026-05-06 20:52 | 41.25169 | 36.73748 | 40153 ft | 483 kts | 275° |
| 2026-05-06 20:53 | 41.25821 | 36.64927 | 40150 ft | 483 kts | 275° |
| 2026-05-06 20:53 | 41.26659 | 36.56060 | 40151 ft | 484 kts | 281° |
| 2026-05-06 20:54 | 41.28451 | 36.47445 | 40153 ft | 485 kts | 289° |
| 2026-05-06 20:54 | 41.30636 | 36.38953 | 40153 ft | 485 kts | 288° |
| 2026-05-06 20:55 | 41.32793 | 36.30439 | 40158 ft | 486 kts | 288° |
| 2026-05-06 20:55 | 41.34946 | 36.21922 | 40154 ft | 486 kts | 288° |
| 2026-05-06 20:56 | 41.37103 | 36.13375 | 40152 ft | 487 kts | 288° |
| 2026-05-06 20:56 | 41.39251 | 36.04828 | 40148 ft | 487 kts | 288° |
| 2026-05-06 20:57 | 41.41398 | 35.96260 | 40143 ft | 488 kts | 288° |
| 2026-05-06 20:57 | 41.43537 | 35.87689 | 40152 ft | 487 kts | 288° |
| 2026-05-06 20:58 | 41.45669 | 35.79115 | 40140 ft | 487 kts | 288° |
| 2026-05-06 20:58 | 41.47790 | 35.70558 | 40136 ft | 486 kts | 288° |
| 2026-05-06 20:59 | 41.49903 | 35.61999 | 40130 ft | 485 kts | 288° |
| 2026-05-06 20:59 | 41.52007 | 35.53444 | 40123 ft | 485 kts | 288° |
| 2026-05-06 21:00 | 41.54105 | 35.44885 | 40109 ft | 485 kts | 288° |
| 2026-05-06 21:00 | 41.56192 | 35.36338 | 40114 ft | 484 kts | 288° |
| 2026-05-06 21:01 | 41.58274 | 35.27780 | 40119 ft | 484 kts | 288° |
| 2026-05-06 21:01 | 41.60346 | 35.19231 | 40120 ft | 484 kts | 288° |
| 2026-05-06 21:02 | 41.62065 | 35.12114 | 40119 ft | 484 kts | 288° |
| 2026-05-06 21:02 | 41.64126 | 35.03554 | 40122 ft | 483 kts | 288° |
| 2026-05-06 21:03 | 41.66178 | 34.94998 | 40130 ft | 483 kts | 288° |
| 2026-05-06 21:03 | 41.68219 | 34.86457 | 40123 ft | 482 kts | 288° |
| 2026-05-06 21:04 | 41.70255 | 34.77906 | 40118 ft | 482 kts | 288° |
| 2026-05-06 21:04 | 41.72281 | 34.69364 | 40118 ft | 482 kts | 288° |
| 2026-05-06 21:05 | 41.74303 | 34.60811 | 40120 ft | 481 kts | 288° |
| 2026-05-06 21:05 | 41.76316 | 34.52259 | 40110 ft | 481 kts | 288° |
| 2026-05-06 21:06 | 41.78319 | 34.43709 | 40105 ft | 481 kts | 288° |
| 2026-05-06 21:06 | 41.80321 | 34.35142 | 40100 ft | 482 kts | 288° |
| 2026-05-06 21:07 | 41.82317 | 34.26566 | 40097 ft | 482 kts | 288° |
| 2026-05-06 21:07 | 41.84310 | 34.17969 | 40096 ft | 483 kts | 288° |
| 2026-05-06 21:08 | 41.86287 | 34.09405 | 40101 ft | 484 kts | 288° |
| 2026-05-06 21:08 | 41.88274 | 34.00769 | 40103 ft | 485 kts | 288° |
| 2026-05-06 21:09 | 41.90255 | 33.92126 | 40099 ft | 485 kts | 288° |
| 2026-05-06 21:09 | 41.92233 | 33.83458 | 40101 ft | 485 kts | 288° |
| 2026-05-06 21:10 | 41.94202 | 33.74797 | 40100 ft | 485 kts | 288° |
| 2026-05-06 21:10 | 41.96111 | 33.66107 | 40099 ft | 485 kts | 285° |
| 2026-05-06 21:11 | 41.97760 | 33.57323 | 40100 ft | 484 kts | 285° |
| 2026-05-06 21:11 | 41.99408 | 33.48560 | 40098 ft | 484 kts | 285° |
| 2026-05-06 21:12 | 42.01078 | 33.39804 | 40090 ft | 483 kts | 285° |
| 2026-05-06 21:12 | 42.02749 | 33.31036 | 40093 ft | 483 kts | 285° |
| 2026-05-06 21:13 | 42.04409 | 33.22287 | 40084 ft | 483 kts | 285° |
| 2026-05-06 21:13 | 42.06063 | 33.13525 | 40083 ft | 483 kts | 285° |
| 2026-05-06 21:14 | 42.07719 | 33.04784 | 40082 ft | 482 kts | 286° |
| 2026-05-06 21:14 | 42.09501 | 32.96149 | 40094 ft | 482 kts | 287° |
| 2026-05-06 21:15 | 42.11296 | 32.87469 | 40097 ft | 481 kts | 287° |
| 2026-05-06 21:15 | 42.13067 | 32.78777 | 40098 ft | 481 kts | 287° |
| 2026-05-06 21:16 | 42.14826 | 32.70086 | 40099 ft | 480 kts | 287° |
| 2026-05-06 21:16 | 42.16575 | 32.61402 | 40100 ft | 480 kts | 287° |
| 2026-05-06 21:17 | 42.18313 | 32.52726 | 40097 ft | 479 kts | 287° |
| 2026-05-06 21:17 | 42.20041 | 32.44057 | 40096 ft | 478 kts | 287° |
| 2026-05-06 21:18 | 42.21757 | 32.35410 | 40093 ft | 477 kts | 287° |
| 2026-05-06 21:18 | 42.23468 | 32.26758 | 40090 ft | 477 kts | 286° |
| 2026-05-06 21:19 | 42.25166 | 32.18125 | 40087 ft | 476 kts | 286° |
| 2026-05-06 21:19 | 42.26852 | 32.09479 | 40088 ft | 476 kts | 286° |
| 2026-05-06 21:20 | 42.28540 | 32.00847 | 40087 ft | 475 kts | 286° |
| 2026-05-06 21:20 | 42.30224 | 31.92210 | 40097 ft | 475 kts | 286° |
| 2026-05-06 21:21 | 42.31899 | 31.83577 | 40096 ft | 475 kts | 286° |
| 2026-05-06 21:21 | 42.33569 | 31.74928 | 40107 ft | 475 kts | 286° |
| 2026-05-06 21:22 | 42.35232 | 31.66274 | 40108 ft | 476 kts | 286° |
| 2026-05-06 21:22 | 42.36888 | 31.57620 | 40111 ft | 476 kts | 286° |
| 2026-05-06 21:23 | 42.38528 | 31.49009 | 40114 ft | 476 kts | 286° |
| 2026-05-06 21:23 | 42.40173 | 31.40333 | 40116 ft | 476 kts | 286° |
| 2026-05-06 21:24 | 42.41812 | 31.31652 | 40117 ft | 476 kts | 286° |
| 2026-05-06 21:24 | 42.43443 | 31.22975 | 40117 ft | 476 kts | 286° |
| 2026-05-06 21:25 | 42.45067 | 31.14291 | 40119 ft | 475 kts | 286° |
| 2026-05-06 21:25 | 42.46681 | 31.05619 | 40118 ft | 475 kts | 286° |
| 2026-05-06 21:26 | 42.48287 | 30.96939 | 40116 ft | 475 kts | 286° |
| 2026-05-06 21:26 | 42.49885 | 30.88262 | 40114 ft | 474 kts | 286° |
| 2026-05-06 21:27 | 42.51476 | 30.79585 | 40116 ft | 474 kts | 286° |
| 2026-05-06 21:27 | 42.53056 | 30.70929 | 40116 ft | 473 kts | 286° |
| 2026-05-06 21:28 | 42.54629 | 30.62270 | 40106 ft | 473 kts | 286° |
| 2026-05-06 21:28 | 42.56195 | 30.53615 | 40102 ft | 472 kts | 286° |
| 2026-05-06 21:29 | 42.57750 | 30.44974 | 40104 ft | 471 kts | 286° |
| 2026-05-06 21:29 | 42.59297 | 30.36339 | 40099 ft | 471 kts | 286° |
| 2026-05-06 21:30 | 42.61518 | 30.28038 | 40095 ft | 467 kts | 298° |
| 2026-05-06 21:30 | 42.64957 | 30.20624 | 40096 ft | 464 kts | 310° |
| 2026-05-06 21:31 | 42.69185 | 30.14096 | 40094 ft | 463 kts | 313° |
| 2026-05-06 21:31 | 42.73489 | 30.07504 | 40088 ft | 463 kts | 313° |
| 2026-05-06 21:32 | 42.77738 | 30.00981 | 40098 ft | 464 kts | 313° |
| 2026-05-06 21:32 | 42.84155 | 29.91118 | 40108 ft | 464 kts | 313° |
| 2026-05-06 21:33 | 42.88428 | 29.84533 | 40099 ft | 464 kts | 313° |
| 2026-05-06 21:33 | 42.92701 | 29.77933 | 40100 ft | 464 kts | 313° |
| 2026-05-06 21:34 | 42.96965 | 29.71333 | 40099 ft | 464 kts | 313° |
| 2026-05-06 21:34 | 43.01229 | 29.64717 | 40093 ft | 464 kts | 312° |
| 2026-05-06 21:35 | 43.05483 | 29.58100 | 40097 ft | 463 kts | 312° |
| 2026-05-06 21:35 | 43.09730 | 29.51481 | 40089 ft | 463 kts | 312° |
| 2026-05-06 21:36 | 43.13976 | 29.44848 | 40088 ft | 463 kts | 312° |
| 2026-05-06 21:36 | 43.18218 | 29.38206 | 40079 ft | 463 kts | 312° |
| 2026-05-06 21:37 | 43.22457 | 29.31552 | 40090 ft | 463 kts | 312° |
| 2026-05-06 21:37 | 43.26690 | 29.24894 | 40091 ft | 463 kts | 312° |
| 2026-05-06 21:38 | 43.30919 | 29.18226 | 40093 ft | 463 kts | 312° |
| 2026-05-06 21:38 | 43.35148 | 29.11543 | 40093 ft | 463 kts | 312° |
| 2026-05-06 21:39 | 43.39377 | 29.04845 | 40086 ft | 464 kts | 312° |
| 2026-05-06 21:39 | 43.43596 | 28.98146 | 40085 ft | 464 kts | 312° |
| 2026-05-06 21:40 | 43.47816 | 28.91431 | 40085 ft | 463 kts | 312° |
| 2026-05-06 21:40 | 43.52025 | 28.84717 | 40084 ft | 463 kts | 312° |
| 2026-05-06 21:41 | 43.56239 | 28.77980 | 40085 ft | 463 kts | 312° |
| 2026-05-06 21:41 | 43.60443 | 28.71242 | 40084 ft | 463 kts | 312° |
| 2026-05-06 21:42 | 43.64638 | 28.64503 | 40084 ft | 463 kts | 312° |
| 2026-05-06 21:42 | 43.68836 | 28.57745 | 40083 ft | 463 kts | 312° |
| 2026-05-06 21:43 | 43.72797 | 28.50796 | 40078 ft | 464 kts | 306° |
| 2026-05-06 21:43 | 43.76068 | 28.43084 | 40081 ft | 466 kts | 298° |
| 2026-05-06 21:44 | 43.78946 | 28.34986 | 40083 ft | 466 kts | 298° |
| 2026-05-06 21:44 | 43.81823 | 28.26998 | 40084 ft | 466 kts | 298° |
| 2026-05-06 21:45 | 43.84701 | 28.18959 | 40085 ft | 466 kts | 298° |
| 2026-05-06 21:45 | 43.87573 | 28.10900 | 40094 ft | 466 kts | 298° |
| 2026-05-06 21:46 | 43.90434 | 28.02838 | 40094 ft | 466 kts | 298° |
| 2026-05-06 21:46 | 43.93290 | 27.94756 | 40094 ft | 466 kts | 298° |
| 2026-05-06 21:47 | 43.96139 | 27.86668 | 40084 ft | 466 kts | 298° |
| 2026-05-06 21:47 | 43.98979 | 27.78583 | 40084 ft | 466 kts | 298° |
| 2026-05-06 21:48 | 44.01815 | 27.70482 | 40085 ft | 466 kts | 298° |
| 2026-05-06 21:48 | 44.04165 | 27.63754 | 40083 ft | 466 kts | 297° |
| 2026-05-06 21:49 | 44.06988 | 27.55647 | 40082 ft | 466 kts | 297° |
| 2026-05-06 21:49 | 44.09802 | 27.47542 | 40083 ft | 465 kts | 297° |
| 2026-05-06 21:50 | 44.12609 | 27.39435 | 40076 ft | 465 kts | 297° |
| 2026-05-06 21:50 | 44.15414 | 27.31311 | 40081 ft | 465 kts | 297° |
| 2026-05-06 21:51 | 44.18212 | 27.23178 | 40084 ft | 465 kts | 297° |
| 2026-05-06 21:51 | 44.21005 | 27.15038 | 40084 ft | 465 kts | 297° |
| 2026-05-06 21:52 | 44.23787 | 27.06904 | 40078 ft | 465 kts | 297° |
| 2026-05-06 21:52 | 44.26564 | 26.98760 | 40077 ft | 465 kts | 297° |
| 2026-05-06 21:53 | 44.29336 | 26.90609 | 40060 ft | 464 kts | 297° |
| 2026-05-06 21:53 | 44.32095 | 26.82469 | 40063 ft | 464 kts | 297° |
| 2026-05-06 21:54 | 44.34849 | 26.74319 | 40061 ft | 463 kts | 297° |
| 2026-05-06 21:54 | 44.37589 | 26.66184 | 40059 ft | 463 kts | 296° |
| 2026-05-06 21:55 | 44.40325 | 26.58041 | 40049 ft | 462 kts | 296° |
| 2026-05-06 21:55 | 44.43048 | 26.49908 | 40045 ft | 462 kts | 296° |
| 2026-05-06 21:56 | 44.45765 | 26.41770 | 40040 ft | 461 kts | 296° |
| 2026-05-06 21:56 | 44.48472 | 26.33635 | 40039 ft | 461 kts | 296° |
| 2026-05-06 21:57 | 44.51172 | 26.25497 | 40044 ft | 460 kts | 296° |
| 2026-05-06 21:57 | 44.53864 | 26.17360 | 40045 ft | 460 kts | 296° |
| 2026-05-06 21:58 | 44.56532 | 26.09269 | 40040 ft | 460 kts | 296° |
| 2026-05-06 21:58 | 44.59211 | 26.01120 | 40039 ft | 460 kts | 296° |
| 2026-05-06 21:59 | 44.61887 | 25.92957 | 40047 ft | 460 kts | 296° |
| 2026-05-06 21:59 | 44.64552 | 25.84798 | 40044 ft | 460 kts | 296° |
| 2026-05-06 22:00 | 44.67214 | 25.76627 | 40052 ft | 460 kts | 296° |
| 2026-05-06 22:00 | 44.69867 | 25.68454 | 40046 ft | 460 kts | 296° |
| 2026-05-06 22:01 | 44.72514 | 25.60277 | 40049 ft | 459 kts | 296° |
| 2026-05-06 22:01 | 44.75153 | 25.52099 | 40047 ft | 459 kts | 295° |
| 2026-05-06 22:02 | 44.77788 | 25.43907 | 40044 ft | 459 kts | 295° |
| 2026-05-06 22:02 | 44.80412 | 25.35724 | 40050 ft | 459 kts | 295° |
| 2026-05-06 22:03 | 44.83031 | 25.27534 | 40039 ft | 459 kts | 295° |
| 2026-05-06 22:03 | 44.85645 | 25.19329 | 40038 ft | 459 kts | 295° |
| 2026-05-06 22:04 | 44.88251 | 25.11125 | 40038 ft | 458 kts | 295° |
| 2026-05-06 22:04 | 44.90853 | 25.02909 | 40042 ft | 458 kts | 295° |
| 2026-05-06 22:05 | 44.93443 | 24.94702 | 40043 ft | 458 kts | 295° |
| 2026-05-06 22:05 | 44.96030 | 24.86480 | 40038 ft | 458 kts | 295° |
| 2026-05-06 22:06 | 44.98609 | 24.78258 | 40035 ft | 458 kts | 295° |
| 2026-05-06 22:06 | 45.01163 | 24.70088 | 40039 ft | 458 kts | 295° |
| 2026-05-06 22:07 | 45.03729 | 24.61857 | 40037 ft | 457 kts | 295° |
| 2026-05-06 22:07 | 45.06288 | 24.53619 | 40029 ft | 457 kts | 295° |
| 2026-05-06 22:08 | 45.08841 | 24.45374 | 40030 ft | 457 kts | 295° |
| 2026-05-06 22:08 | 45.11385 | 24.37134 | 40033 ft | 457 kts | 294° |
| 2026-05-06 22:09 | 45.13926 | 24.28874 | 40022 ft | 457 kts | 294° |
| 2026-05-06 22:09 | 45.16464 | 24.20600 | 40017 ft | 458 kts | 294° |
| 2026-05-06 22:10 | 45.18991 | 24.12332 | 40017 ft | 458 kts | 294° |
| 2026-05-06 22:10 | 45.21515 | 24.04047 | 40018 ft | 458 kts | 294° |
| 2026-05-06 22:11 | 45.24035 | 23.95751 | 40025 ft | 458 kts | 294° |
| 2026-05-06 22:11 | 45.26546 | 23.87457 | 40027 ft | 457 kts | 294° |
| 2026-05-06 22:12 | 45.29048 | 23.79164 | 40021 ft | 457 kts | 294° |
| 2026-05-06 22:12 | 45.31542 | 23.70870 | 40015 ft | 456 kts | 294° |
| 2026-05-06 22:13 | 45.34023 | 23.62591 | 40009 ft | 455 kts | 294° |
| 2026-05-06 22:13 | 45.36497 | 23.54313 | 40007 ft | 455 kts | 294° |
| 2026-05-06 22:14 | 45.38947 | 23.46084 | 40007 ft | 455 kts | 293° |
| 2026-05-06 22:14 | 45.41407 | 23.37795 | 39999 ft | 455 kts | 293° |
| 2026-05-06 22:15 | 45.43862 | 23.29497 | 40000 ft | 454 kts | 293° |
| 2026-05-06 22:15 | 45.46309 | 23.21198 | 39998 ft | 454 kts | 293° |
| 2026-05-06 22:16 | 45.48753 | 23.12888 | 39985 ft | 455 kts | 293° |
| 2026-05-06 22:16 | 45.51189 | 23.04569 | 39987 ft | 455 kts | 292° |
| 2026-05-06 22:17 | 45.53616 | 22.96251 | 39987 ft | 455 kts | 292° |
| 2026-05-06 22:17 | 45.56041 | 22.87923 | 39984 ft | 454 kts | 292° |
| 2026-05-06 22:18 | 45.58453 | 22.79596 | 39963 ft | 454 kts | 292° |
| 2026-05-06 22:18 | 45.60848 | 22.71307 | 39963 ft | 454 kts | 292° |
| 2026-05-06 22:19 | 45.63247 | 22.62977 | 39963 ft | 454 kts | 292° |
| 2026-05-06 22:19 | 45.65643 | 22.54628 | 39966 ft | 454 kts | 292° |
| 2026-05-06 22:20 | 45.68032 | 22.46283 | 39956 ft | 454 kts | 291° |
| 2026-05-06 22:20 | 45.70415 | 22.37920 | 39944 ft | 454 kts | 291° |
| 2026-05-06 22:21 | 45.72793 | 22.29545 | 39944 ft | 454 kts | 291° |
| 2026-05-06 22:21 | 45.75165 | 22.21170 | 39946 ft | 454 kts | 291° |
| 2026-05-06 22:22 | 45.77531 | 22.12784 | 39946 ft | 454 kts | 291° |
| 2026-05-06 22:22 | 45.79892 | 22.04387 | 39945 ft | 454 kts | 291° |
| 2026-05-06 22:23 | 45.82246 | 21.95988 | 39946 ft | 454 kts | 291° |
| 2026-05-06 22:23 | 45.84592 | 21.87585 | 39944 ft | 454 kts | 291° |
| 2026-05-06 22:24 | 45.86917 | 21.79229 | 39942 ft | 454 kts | 290° |
| 2026-05-06 22:24 | 45.89250 | 21.70818 | 39938 ft | 453 kts | 291° |
| 2026-05-06 22:25 | 45.91579 | 21.62393 | 39938 ft | 454 kts | 290° |
| 2026-05-06 22:25 | 45.93900 | 21.53966 | 39940 ft | 454 kts | 290° |
| 2026-05-06 22:26 | 45.96215 | 21.45531 | 39939 ft | 454 kts | 290° |
| 2026-05-06 22:26 | 45.98528 | 21.37075 | 39941 ft | 454 kts | 290° |
| 2026-05-06 22:27 | 46.00830 | 21.28618 | 39944 ft | 454 kts | 290° |
| 2026-05-06 22:27 | 46.03131 | 21.20143 | 39930 ft | 455 kts | 290° |
| 2026-05-06 22:28 | 46.05426 | 21.11669 | 39928 ft | 455 kts | 290° |
| 2026-05-06 22:28 | 46.07717 | 21.03174 | 39923 ft | 455 kts | 290° |
| 2026-05-06 22:29 | 46.09993 | 20.94729 | 39928 ft | 455 kts | 289° |
| 2026-05-06 22:29 | 46.12279 | 20.86213 | 39923 ft | 456 kts | 289° |
| 2026-05-06 22:30 | 46.14563 | 20.77674 | 39930 ft | 457 kts | 289° |
| 2026-05-06 22:30 | 46.16803 | 20.69086 | 39930 ft | 457 kts | 287° |
| 2026-05-06 22:31 | 46.18875 | 20.60423 | 39931 ft | 458 kts | 288° |
| 2026-05-06 22:31 | 46.21039 | 20.51771 | 39937 ft | 458 kts | 288° |
| 2026-05-06 22:32 | 46.23185 | 20.43104 | 39940 ft | 459 kts | 287° |
| 2026-05-06 22:32 | 46.25312 | 20.34413 | 39939 ft | 459 kts | 287° |
| 2026-05-06 22:33 | 46.27426 | 20.25726 | 39932 ft | 458 kts | 287° |
| 2026-05-06 22:33 | 46.29535 | 20.17020 | 39939 ft | 458 kts | 287° |
| 2026-05-06 22:34 | 46.31635 | 20.08320 | 39934 ft | 458 kts | 287° |
| 2026-05-06 22:34 | 46.33728 | 19.99621 | 39935 ft | 458 kts | 287° |
| 2026-05-06 22:35 | 46.35814 | 19.90912 | 39932 ft | 458 kts | 287° |
| 2026-05-06 22:35 | 46.37895 | 19.82196 | 39941 ft | 458 kts | 287° |
| 2026-05-06 22:36 | 46.39968 | 19.73471 | 39944 ft | 458 kts | 287° |
| 2026-05-06 22:36 | 46.42034 | 19.64744 | 39942 ft | 458 kts | 286° |
| 2026-05-06 22:37 | 46.44096 | 19.55999 | 39948 ft | 458 kts | 286° |
| 2026-05-06 22:37 | 46.46150 | 19.47248 | 39953 ft | 458 kts | 286° |
| 2026-05-06 22:38 | 46.48180 | 19.38568 | 39950 ft | 458 kts | 286° |
| 2026-05-06 22:38 | 46.50219 | 19.29821 | 39953 ft | 457 kts | 286° |
| 2026-05-06 22:39 | 46.52248 | 19.21080 | 39943 ft | 457 kts | 286° |
| 2026-05-06 22:39 | 46.53927 | 19.13813 | 39945 ft | 455 kts | 286° |
| 2026-05-06 22:40 | 46.55934 | 19.05097 | 39943 ft | 455 kts | 286° |
| 2026-05-06 22:40 | 46.57936 | 18.96373 | 39942 ft | 455 kts | 286° |
| 2026-05-06 22:41 | 46.60919 | 18.83304 | 39946 ft | 454 kts | 285° |
| 2026-05-06 22:42 | 46.62897 | 18.74584 | 39944 ft | 454 kts | 285° |
| 2026-05-06 22:42 | 46.64868 | 18.65873 | 39946 ft | 453 kts | 285° |
| 2026-05-06 22:43 | 46.66833 | 18.57152 | 39943 ft | 452 kts | 285° |
| 2026-05-06 22:43 | 46.68788 | 18.48441 | 39941 ft | 453 kts | 285° |
| 2026-05-06 22:44 | 46.70734 | 18.39727 | 39935 ft | 453 kts | 285° |
| 2026-05-06 22:44 | 46.72676 | 18.30998 | 39936 ft | 453 kts | 285° |
| 2026-05-06 22:45 | 46.74612 | 18.22261 | 39938 ft | 453 kts | 285° |
| 2026-05-06 22:45 | 46.76538 | 18.13530 | 39935 ft | 452 kts | 285° |
| 2026-05-06 22:46 | 46.78445 | 18.04852 | 39931 ft | 452 kts | 285° |
| 2026-05-06 22:46 | 46.80358 | 17.96113 | 39927 ft | 452 kts | 285° |
| 2026-05-06 22:47 | 46.82262 | 17.87374 | 39925 ft | 452 kts | 284° |
| 2026-05-06 22:47 | 46.84159 | 17.78619 | 39922 ft | 452 kts | 284° |
| 2026-05-06 22:48 | 46.86051 | 17.69870 | 39916 ft | 452 kts | 284° |
| 2026-05-06 22:48 | 46.87932 | 17.61124 | 39918 ft | 451 kts | 284° |
| 2026-05-06 22:49 | 46.89804 | 17.52379 | 39913 ft | 451 kts | 284° |
| 2026-05-06 22:49 | 46.91674 | 17.43616 | 39923 ft | 451 kts | 284° |
| 2026-05-06 22:50 | 46.93534 | 17.34866 | 39916 ft | 451 kts | 284° |
| 2026-05-06 22:50 | 46.95387 | 17.26100 | 39918 ft | 451 kts | 284° |
| 2026-05-06 22:51 | 46.97237 | 17.17320 | 39922 ft | 451 kts | 284° |
| 2026-05-06 22:51 | 46.99076 | 17.08547 | 39911 ft | 451 kts | 284° |
| 2026-05-06 22:52 | 47.00909 | 16.99764 | 39910 ft | 451 kts | 284° |
| 2026-05-06 22:52 | 47.02736 | 16.90974 | 39910 ft | 451 kts | 284° |
| 2026-05-06 22:53 | 47.04556 | 16.82174 | 39909 ft | 451 kts | 284° |
| 2026-05-06 22:53 | 47.06372 | 16.73370 | 39911 ft | 451 kts | 283° |
| 2026-05-06 22:54 | 47.08171 | 16.64601 | 39902 ft | 452 kts | 283° |
| 2026-05-06 22:54 | 47.09986 | 16.55705 | 39903 ft | 452 kts | 283° |
| 2026-05-06 22:55 | 47.11778 | 16.46907 | 39911 ft | 452 kts | 283° |
| 2026-05-06 22:55 | 47.13577 | 16.38059 | 39904 ft | 453 kts | 283° |
| 2026-05-06 22:56 | 47.15802 | 16.29370 | 39884 ft | 456 kts | 290° |
| 2026-05-06 22:56 | 47.18353 | 16.20832 | 39888 ft | 457 kts | 290° |
| 2026-05-06 22:57 | 47.20890 | 16.12264 | 39888 ft | 457 kts | 290° |
| 2026-05-06 22:57 | 47.23411 | 16.03682 | 39889 ft | 457 kts | 289° |
| 2026-05-06 22:58 | 47.25925 | 15.95078 | 39886 ft | 457 kts | 289° |
| 2026-05-06 22:58 | 47.28430 | 15.86475 | 39880 ft | 457 kts | 289° |
| 2026-05-06 22:59 | 47.30931 | 15.77853 | 39884 ft | 458 kts | 289° |
| 2026-05-06 22:59 | 47.33428 | 15.69220 | 39882 ft | 458 kts | 289° |
| 2026-05-06 23:00 | 47.35914 | 15.60596 | 39879 ft | 457 kts | 289° |
| 2026-05-06 23:00 | 47.38394 | 15.51960 | 39878 ft | 457 kts | 289° |
| 2026-05-06 23:01 | 47.40867 | 15.43319 | 39880 ft | 458 kts | 289° |
| 2026-05-06 23:01 | 47.43340 | 15.34636 | 39878 ft | 459 kts | 289° |
| 2026-05-06 23:02 | 47.45805 | 15.25950 | 39875 ft | 459 kts | 289° |
| 2026-05-06 23:02 | 47.48272 | 15.17237 | 39878 ft | 460 kts | 289° |
| 2026-05-06 23:03 | 47.50736 | 15.08506 | 39881 ft | 461 kts | 289° |
| 2026-05-06 23:03 | 47.53197 | 14.99748 | 39899 ft | 461 kts | 288° |
| 2026-05-06 23:04 | 47.55654 | 14.90976 | 39899 ft | 461 kts | 288° |
| 2026-05-06 23:04 | 47.58090 | 14.82247 | 39894 ft | 461 kts | 288° |
| 2026-05-06 23:05 | 47.60531 | 14.73464 | 39884 ft | 461 kts | 288° |
| 2026-05-06 23:05 | 47.62966 | 14.64672 | 39890 ft | 461 kts | 288° |
| 2026-05-06 23:05 | 47.64180 | 14.60277 | 39754 ft | 460 kts | 288° |
| 2026-05-06 23:06 | 47.65385 | 14.55914 | 39507 ft | 455 kts | 288° |
| 2026-05-06 23:06 | 47.66575 | 14.51596 | 39253 ft | 452 kts | 288° |
| 2026-05-06 23:06 | 47.67761 | 14.47277 | 38997 ft | 451 kts | 287° |
| 2026-05-06 23:06 | 47.68939 | 14.42972 | 38757 ft | 451 kts | 287° |
| 2026-05-06 23:07 | 47.70118 | 14.38657 | 38499 ft | 451 kts | 287° |
| 2026-05-06 23:07 | 47.71297 | 14.34337 | 37945 ft | 452 kts | 287° |
| 2026-05-06 23:07 | 47.72477 | 14.30009 | 37193 ft | 454 kts | 287° |
| 2026-05-06 23:07 | 47.73664 | 14.25641 | 36331 ft | 457 kts | 287° |
| 2026-05-06 23:08 | 47.74857 | 14.21245 | 35267 ft | 461 kts | 287° |
| 2026-05-06 23:08 | 47.76062 | 14.16795 | 34080 ft | 468 kts | 287° |
| 2026-05-06 23:08 | 47.77278 | 14.12306 | 33199 ft | 467 kts | 287° |
| 2026-05-06 23:08 | 47.78484 | 14.07854 | 32564 ft | 461 kts | 286° |
| 2026-05-06 23:09 | 47.79665 | 14.03490 | 32218 ft | 449 kts | 286° |
| 2026-05-06 23:09 | 47.80814 | 13.99238 | 31881 ft | 438 kts | 286° |
| 2026-05-06 23:09 | 47.81938 | 13.95053 | 31288 ft | 434 kts | 286° |
| 2026-05-06 23:09 | 47.83050 | 13.90901 | 30717 ft | 430 kts | 286° |
| 2026-05-06 23:10 | 47.84148 | 13.86792 | 30148 ft | 426 kts | 286° |
| 2026-05-06 23:10 | 47.85236 | 13.82713 | 29585 ft | 422 kts | 286° |
| 2026-05-06 23:10 | 47.86314 | 13.78667 | 29023 ft | 419 kts | 286° |
| 2026-05-06 23:10 | 47.87384 | 13.74648 | 28473 ft | 415 kts | 286° |
| 2026-05-06 23:11 | 47.88440 | 13.70676 | 27931 ft | 411 kts | 286° |
| 2026-05-06 23:11 | 47.89487 | 13.66730 | 27363 ft | 408 kts | 286° |
| 2026-05-06 23:11 | 47.90497 | 13.62915 | 26843 ft | 405 kts | 286° |
| 2026-05-06 23:11 | 47.91523 | 13.59033 | 26301 ft | 402 kts | 286° |
| 2026-05-06 23:12 | 47.92542 | 13.55175 | 25767 ft | 398 kts | 286° |
| 2026-05-06 23:12 | 47.93551 | 13.51345 | 25227 ft | 396 kts | 286° |
| 2026-05-06 23:12 | 47.94554 | 13.47533 | 24692 ft | 393 kts | 286° |
| 2026-05-06 23:12 | 47.95544 | 13.43760 | 24161 ft | 390 kts | 286° |
| 2026-05-06 23:13 | 47.96525 | 13.40019 | 23634 ft | 387 kts | 286° |
| 2026-05-06 23:13 | 47.97501 | 13.36290 | 23100 ft | 384 kts | 286° |
| 2026-05-06 23:13 | 47.98456 | 13.32637 | 22588 ft | 381 kts | 286° |
| 2026-05-06 23:13 | 47.99414 | 13.28964 | 22060 ft | 379 kts | 286° |
| 2026-05-06 23:14 | 48.00368 | 13.25306 | 21535 ft | 376 kts | 286° |
| 2026-05-06 23:14 | 48.01290 | 13.21762 | 21027 ft | 374 kts | 286° |
| 2026-05-06 23:14 | 48.02227 | 13.18155 | 20509 ft | 371 kts | 286° |
| 2026-05-06 23:14 | 48.03150 | 13.14598 | 19994 ft | 368 kts | 286° |
| 2026-05-06 23:15 | 48.04072 | 13.11040 | 19479 ft | 365 kts | 287° |
| 2026-05-06 23:15 | 48.04986 | 13.07510 | 18958 ft | 363 kts | 286° |
| 2026-05-06 23:15 | 48.05889 | 13.04011 | 18467 ft | 360 kts | 286° |
| 2026-05-06 23:15 | 48.06787 | 13.00531 | 17944 ft | 357 kts | 286° |
| 2026-05-06 23:16 | 48.07678 | 12.97076 | 17436 ft | 354 kts | 286° |
| 2026-05-06 23:16 | 48.08420 | 12.94186 | 17010 ft | 352 kts | 285° |
| 2026-05-06 23:16 | 48.09126 | 12.90725 | 16516 ft | 345 kts | 279° |
| 2026-05-06 23:16 | 48.09547 | 12.87218 | 16035 ft | 339 kts | 273° |
| 2026-05-06 23:17 | 48.09847 | 12.83737 | 15543 ft | 336 kts | 274° |
| 2026-05-06 23:17 | 48.10170 | 12.80295 | 15078 ft | 333 kts | 274° |
| 2026-05-06 23:17 | 48.10500 | 12.76882 | 14611 ft | 330 kts | 274° |
| 2026-05-06 23:17 | 48.10812 | 12.73638 | 14160 ft | 328 kts | 274° |
| 2026-05-06 23:18 | 48.11122 | 12.70375 | 13713 ft | 324 kts | 274° |
| 2026-05-06 23:18 | 48.11436 | 12.67050 | 13257 ft | 321 kts | 274° |
| 2026-05-06 23:18 | 48.11743 | 12.63753 | 12807 ft | 318 kts | 274° |
| 2026-05-06 23:18 | 48.12045 | 12.60489 | 12351 ft | 316 kts | 274° |
| 2026-05-06 23:19 | 48.12346 | 12.57247 | 11916 ft | 313 kts | 274° |
| 2026-05-06 23:19 | 48.12640 | 12.54038 | 11466 ft | 310 kts | 274° |
| 2026-05-06 23:19 | 48.12925 | 12.50917 | 11035 ft | 307 kts | 275° |
| 2026-05-06 23:19 | 48.13207 | 12.47864 | 10610 ft | 305 kts | 275° |
| 2026-05-06 23:20 | 48.13494 | 12.44715 | 10263 ft | 299 kts | 276° |
| 2026-05-06 23:20 | 48.13769 | 12.41711 | 10148 ft | 285 kts | 276° |
| 2026-05-06 23:20 | 48.14035 | 12.38828 | 9954 ft | 277 kts | 276° |
| 2026-05-06 23:20 | 48.14290 | 12.36002 | 9812 ft | 272 kts | 276° |
| 2026-05-06 23:21 | 48.14539 | 12.33195 | 9680 ft | 272 kts | 276° |
| 2026-05-06 23:21 | 48.14750 | 12.30382 | 9560 ft | 272 kts | 275° |
| 2026-05-06 23:21 | 48.14935 | 12.27560 | 9347 ft | 272 kts | 275° |
| 2026-05-06 23:21 | 48.15120 | 12.24762 | 9119 ft | 269 kts | 276° |
| 2026-05-06 23:22 | 48.15305 | 12.21991 | 8873 ft | 268 kts | 276° |
| 2026-05-06 23:22 | 48.15495 | 12.19235 | 8647 ft | 265 kts | 276° |
| 2026-05-06 23:22 | 48.15687 | 12.16511 | 8429 ft | 263 kts | 277° |
| 2026-05-06 23:22 | 48.15873 | 12.13798 | 8188 ft | 260 kts | 276° |
| 2026-05-06 23:23 | 48.16056 | 12.11103 | 7987 ft | 261 kts | 276° |
| 2026-05-06 23:23 | 48.16236 | 12.08413 | 7758 ft | 259 kts | 276° |
| 2026-05-06 23:23 | 48.16420 | 12.05740 | 7541 ft | 257 kts | 276° |
| 2026-05-06 23:23 | 48.16604 | 12.03090 | 7324 ft | 256 kts | 276° |
| 2026-05-06 23:24 | 48.16784 | 12.00456 | 7084 ft | 255 kts | 276° |
| 2026-05-06 23:24 | 48.16966 | 11.97835 | 6830 ft | 251 kts | 276° |
| 2026-05-06 23:24 | 48.17145 | 11.95234 | 6580 ft | 250 kts | 276° |
| 2026-05-06 23:24 | 48.17333 | 11.92646 | 6328 ft | 249 kts | 281° |
| 2026-05-06 23:25 | 48.18005 | 11.90277 | 6070 ft | 251 kts | 304° |
| 2026-05-06 23:25 | 48.19336 | 11.88594 | 5834 ft | 256 kts | 329° |
| 2026-05-06 23:25 | 48.21084 | 11.87955 | 5574 ft | 267 kts | 355° |
| 2026-05-06 23:25 | 48.22920 | 11.88567 | 5335 ft | 277 kts | 20° |
| 2026-05-06 23:26 | 48.24021 | 11.89573 | 5164 ft | 284 kts | 36° |
| 2026-05-06 23:26 | 48.25242 | 11.91925 | 4947 ft | 290 kts | 63° |
| 2026-05-06 23:26 | 48.25655 | 11.94857 | 4917 ft | 290 kts | 91° |
| 2026-05-06 23:26 | 48.25325 | 11.97830 | 4917 ft | 290 kts | 101° |
| 2026-05-06 23:27 | 48.25040 | 12.01822 | 4914 ft | 291 kts | 94° |
| 2026-05-06 23:27 | 48.24938 | 12.03864 | 4915 ft | 291 kts | 94° |
| 2026-05-06 23:27 | 48.24788 | 12.06895 | 4916 ft | 292 kts | 94° |
| 2026-05-06 23:27 | 48.24643 | 12.09926 | 4914 ft | 291 kts | 94° |
| 2026-05-06 23:28 | 48.24736 | 12.12914 | 4919 ft | 285 kts | 73° |
| 2026-05-06 23:28 | 48.25591 | 12.15452 | 4916 ft | 265 kts | 45° |
| 2026-05-06 23:28 | 48.27017 | 12.16991 | 4914 ft | 242 kts | 15° |
| 2026-05-06 23:28 | 48.28581 | 12.17232 | 4910 ft | 215 kts | 342° |
| 2026-05-06 23:29 | 48.29934 | 12.16551 | 4916 ft | 201 kts | 334° |
| 2026-05-06 23:29 | 48.31229 | 12.15829 | 4916 ft | 197 kts | 334° |
| 2026-05-06 23:29 | 48.32515 | 12.15090 | 4916 ft | 197 kts | 329° |
| 2026-05-06 23:29 | 48.33592 | 12.13901 | 4924 ft | 192 kts | 314° |
| 2026-05-06 23:30 | 48.34563 | 12.12537 | 4921 ft | 189 kts | 310° |
| 2026-05-06 23:30 | 48.35428 | 12.11158 | 4920 ft | 172 kts | 309° |
| 2026-05-06 23:30 | 48.36128 | 12.09787 | 4903 ft | 167 kts | 293° |
| 2026-05-06 23:30 | 48.36427 | 12.08115 | 4919 ft | 166 kts | 275° |
| 2026-05-06 23:31 | 48.36432 | 12.06434 | 4860 ft | 157 kts | 268° |
| 2026-05-06 23:31 | 48.36340 | 12.04812 | 4652 ft | 154 kts | 265° |
| 2026-05-06 23:31 | 48.36222 | 12.03223 | 4445 ft | 153 kts | 264° |
| 2026-05-06 23:31 | 48.36100 | 12.01629 | 4240 ft | 154 kts | 264° |
| 2026-05-06 23:32 | 48.35977 | 12.00026 | 4033 ft | 155 kts | 264° |
| 2026-05-06 23:32 | 48.35856 | 11.98416 | 3826 ft | 154 kts | 263° |
| 2026-05-06 23:32 | 48.35732 | 11.96816 | 3616 ft | 155 kts | 264° |
| 2026-05-06 23:32 | 48.35610 | 11.95203 | 3415 ft | 155 kts | 263° |
| 2026-05-06 23:33 | 48.35486 | 11.93591 | 3202 ft | 155 kts | 263° |
| 2026-05-06 23:33 | 48.35362 | 11.91978 | 3002 ft | 155 kts | 263° |
| 2026-05-06 23:33 | 48.35238 | 11.90365 | 2794 ft | 157 kts | 262° |
| 2026-05-06 23:33 | 48.35111 | 11.88721 | 2584 ft | 159 kts | 262° |
| 2026-05-06 23:34 | 48.34992 | 11.87143 | 2382 ft | 146 kts | 262° |
| 2026-05-06 23:34 | 48.34879 | 11.85667 | 2192 ft | 141 kts | 261° |
| 2026-05-06 23:34 | 48.34765 | 11.84211 | 2005 ft | 140 kts | 262° |
| 2026-05-06 23:34 | 48.34654 | 11.82757 | 1821 ft | 140 kts | 262° |
| 2026-05-06 23:35 | 48.34543 | 11.81296 | 1637 ft | 140 kts | 262° |
| 2026-05-06 23:35 | 48.34433 | 11.79845 | 1482 ft | 134 kts | 263° |
| 2026-05-06 23:35 | 48.34347 | 11.78722 | 1479 ft | 80 kts | 264° |
| 2026-05-06 23:35 | 48.34306 | 11.78187 | 1477 ft | 23 kts | 269° |
| 2026-05-06 23:36 | 48.34334 | 11.77929 | 1482 ft | 31 kts | 291° |
| 2026-05-06 23:36 | 48.34413 | 11.77658 | 1488 ft | 23 kts | 294° |
| 2026-05-06 23:36 | 48.34471 | 11.77460 | 1490 ft | 15 kts | 295° |
| 2026-05-06 23:36 | 48.34516 | 11.77433 | 1490 ft | 4 kts | 43° |
| 2026-05-06 23:37 | 48.34526 | 11.77517 | 1490 ft | 17 kts | 85° |
| 2026-05-06 23:37 | 48.34540 | 11.77710 | 1480 ft | 17 kts | 83° |
| 2026-05-06 23:37 | 48.34555 | 11.77901 | 1484 ft | 20 kts | 83° |
| 2026-05-06 23:37 | 48.34572 | 11.78122 | 1490 ft | 22 kts | 83° |
| 2026-05-06 23:38 | 48.34591 | 11.78359 | 1490 ft | 20 kts | 84° |
| 2026-05-06 23:38 | 48.34605 | 11.78577 | 1490 ft | 22 kts | 85° |
| 2026-05-06 23:38 | 48.34621 | 11.78810 | 1480 ft | 21 kts | 82° |
| 2026-05-06 23:38 | 48.34644 | 11.79032 | 1488 ft | 22 kts | 82° |
| 2026-05-06 23:39 | 48.34661 | 11.79262 | 1484 ft | 21 kts | 84° |
| 2026-05-06 23:39 | 48.34673 | 11.79455 | 1490 ft | 17 kts | 84° |
| 2026-05-06 23:39 | 48.34703 | 11.79547 | 1479 ft | 9 kts | 16° |
| 2026-05-06 23:39 | 48.34784 | 11.79556 | 1480 ft | 14 kts | 3° |
| 2026-05-06 23:40 | 48.34887 | 11.79553 | 1477 ft | 13 kts | 353° |
| 2026-05-06 23:40 | 48.34993 | 11.79535 | 1479 ft | 17 kts | 353° |
| 2026-05-06 23:40 | 48.35121 | 11.79513 | 1490 ft | 20 kts | 353° |
| 2026-05-06 23:40 | 48.35242 | 11.79489 | 1479 ft | 17 kts | 352° |
| 2026-05-06 23:41 | 48.35355 | 11.79467 | 1479 ft | 13 kts | 355° |
| 2026-05-06 23:41 | 48.35397 | 11.79453 | 1485 ft | 3 kts | 304° |
| 2026-05-06 23:41 | 48.35408 | 11.79391 | 1478 ft | 7 kts | 274° |
| 2026-05-06 23:41 | 48.35410 | 11.79347 | 1490 ft | 3 kts | 272° |
| 2026-05-06 23:42 | 48.35410 | 11.79328 | 1481 ft | 1 kts | 272° |
| 2026-05-06 23:42 | 48.35411 | 11.79317 | 1484 ft | 0 kts | 272° |